createdAt,value
2023-05-12T00:00:25.644Z,58.0799
2023-05-12T00:01:26.699Z,58.0835
2023-05-12T00:02:28.432Z,57.9806
2023-05-12T00:03:30.589Z,57.9341
2023-05-12T00:04:31.727Z,57.8144
2023-05-12T00:05:33.269Z,57.7616
2023-05-12T00:06:34.935Z,58.0376
2023-05-12T00:07:36.614Z,58.0584
2023-05-12T00:08:38.237Z,58.1848
2023-05-12T00:09:39.888Z,58.2383
2023-05-12T00:10:41.494Z,58.0858
2023-05-12T00:11:43.163Z,58.0605
2023-05-12T00:12:44.790Z,57.9687
2023-05-12T00:13:46.684Z,57.8807
2023-05-12T00:14:48.238Z,57.8992
2023-05-12T00:15:49.873Z,58.1173
2023-05-12T00:16:51.734Z,58.1728
2023-05-12T00:17:53.274Z,58.1257
2023-05-12T00:18:54.855Z,58.1954
2023-05-12T00:19:56.915Z,58.3538
2023-05-12T00:20:58.983Z,58.2839
2023-05-12T00:21:59.748Z,58.1939
2023-05-12T00:23:01.343Z,58.1603
2023-05-12T00:24:03.094Z,57.9842
2023-05-12T00:25:04.702Z,57.9778
2023-05-12T00:26:06.311Z,58.0620
2023-05-12T00:27:07.905Z,58.1223
2023-05-12T00:28:09.698Z,58.3650
2023-05-12T00:29:11.318Z,58.3744
2023-05-12T00:30:12.939Z,58.3991
2023-05-12T00:31:14.551Z,58.3488
2023-05-12T00:32:16.199Z,58.2656
2023-05-12T00:33:17.835Z,58.3068
2023-05-12T00:34:19.593Z,58.2009
2023-05-12T00:35:21.086Z,58.2638
2023-05-12T00:36:22.806Z,58.3839
2023-05-12T00:37:24.406Z,58.5369
2023-05-12T00:38:26.057Z,58.5177
2023-05-12T00:39:27.796Z,58.4805
2023-05-12T00:40:29.398Z,58.3651
2023-05-12T00:41:30.999Z,58.2077
2023-05-12T00:42:32.725Z,58.2403
2023-05-12T00:43:34.329Z,58.3264
2023-05-12T00:44:36.000Z,58.3540
2023-05-12T00:45:37.718Z,58.4082
2023-05-12T00:46:39.240Z,58.5078
2023-05-12T00:47:40.917Z,58.4279
2023-05-12T00:48:42.570Z,58.3447
2023-05-12T00:49:44.284Z,58.3061
2023-05-12T00:50:45.901Z,58.2616
2023-05-12T00:51:47.513Z,58.4556
2023-05-12T00:52:49.189Z,58.4524
2023-05-12T00:53:50.933Z,58.7199
2023-05-12T00:54:52.606Z,58.7659
2023-05-12T00:55:54.161Z,58.6840
2023-05-12T00:56:55.930Z,58.5499
2023-05-12T00:57:57.482Z,58.5258
2023-05-12T00:58:59.133Z,58.3800
2023-05-12T01:00:00.862Z,58.3266
2023-05-12T01:01:02.468Z,58.4923
2023-05-12T01:02:04.061Z,58.5987
2023-05-12T01:03:05.923Z,58.7547
2023-05-12T01:04:07.372Z,58.8245
2023-05-12T01:05:09.088Z,58.9113
2023-05-12T01:06:10.641Z,58.9867
2023-05-12T01:07:12.336Z,58.8789
2023-05-12T01:08:13.925Z,58.7637
2023-05-12T01:09:15.622Z,58.6416
2023-05-12T01:10:17.373Z,58.4995
2023-05-12T01:11:18.897Z,58.6303
2023-05-12T01:12:20.505Z,58.7684
2023-05-12T01:13:22.218Z,58.8701
2023-05-12T01:14:23.938Z,58.8243
2023-05-12T01:15:25.645Z,58.9159
2023-05-12T01:16:27.123Z,58.8184
2023-05-12T01:17:28.897Z,58.7577
2023-05-12T01:18:30.566Z,58.6872
2023-05-12T01:19:32.172Z,58.6779
2023-05-12T01:20:33.730Z,58.7494
2023-05-12T01:21:35.482Z,58.7427
2023-05-12T01:22:37.909Z,58.8145
2023-05-12T01:23:38.712Z,58.7685
2023-05-12T01:24:40.399Z,58.6650
2023-05-12T01:25:42.049Z,58.6123
2023-05-12T01:26:43.675Z,58.6384
2023-05-12T01:27:45.396Z,58.7156
2023-05-12T01:28:46.960Z,58.6887
2023-05-12T01:29:48.665Z,58.7785
2023-05-12T01:30:50.366Z,58.7580
2023-05-12T01:31:51.902Z,58.7034
2023-05-12T01:32:53.571Z,58.8501
2023-05-12T01:33:55.189Z,58.8083
2023-05-12T01:34:56.854Z,58.9703
2023-05-12T01:35:58.562Z,58.9033
2023-05-12T01:37:00.164Z,58.8010
2023-05-12T01:38:02.138Z,58.7880
2023-05-12T01:39:03.455Z,58.7584
2023-05-12T01:40:05.071Z,58.8440
2023-05-12T01:41:06.788Z,58.8941
2023-05-12T01:42:08.444Z,58.8712
2023-05-12T01:43:10.070Z,58.8928
2023-05-12T01:44:11.699Z,58.8345
2023-05-12T01:45:13.358Z,58.7983
2023-05-12T01:46:15.503Z,58.7374
2023-05-12T01:47:16.713Z,58.8644
2023-05-12T01:48:18.272Z,58.8773
2023-05-12T01:49:19.950Z,58.8191
2023-05-12T01:50:21.800Z,58.7507
2023-05-12T01:51:23.346Z,58.7321
2023-05-12T01:52:24.907Z,58.6885
2023-05-12T01:53:26.615Z,58.7318
2023-05-12T01:54:28.184Z,58.8210
2023-05-12T01:55:29.846Z,58.8294
2023-05-12T01:56:32.480Z,58.8520
2023-05-12T01:57:33.130Z,58.7847
2023-05-12T01:58:34.804Z,58.7671
2023-05-12T01:59:36.398Z,58.8486
2023-05-12T02:00:38.172Z,58.8360
2023-05-12T02:01:39.750Z,58.9291
2023-05-12T02:02:43.071Z,58.9191
2023-05-12T02:03:43.166Z,58.9155
2023-05-12T02:04:44.750Z,58.9162
2023-05-12T02:05:46.275Z,58.9386
2023-05-12T02:06:47.996Z,59.0390
2023-05-12T02:07:49.627Z,59.0579
2023-05-12T02:08:51.967Z,59.0825
2023-05-12T02:09:52.859Z,59.0475
2023-05-12T02:10:54.553Z,59.0239
2023-05-12T02:11:56.282Z,58.9289
2023-05-12T02:12:57.912Z,58.9320
2023-05-12T02:13:59.462Z,58.9571
2023-05-12T02:15:01.231Z,59.0581
2023-05-12T02:16:02.898Z,59.0512
2023-05-12T02:17:04.548Z,58.9927
2023-05-12T02:18:06.175Z,58.9245
2023-05-12T02:19:07.805Z,58.8674
2023-05-12T02:20:09.397Z,58.8672
2023-05-12T02:21:11.037Z,58.8769
2023-05-12T02:22:12.689Z,58.9253
2023-05-12T02:23:14.347Z,58.8783
2023-05-12T02:24:15.918Z,58.9820
2023-05-12T02:25:17.606Z,59.0124
2023-05-12T02:26:19.194Z,58.9231
2023-05-12T02:27:20.938Z,58.9623
2023-05-12T02:28:22.567Z,58.8942
2023-05-12T02:29:24.239Z,59.0598
2023-05-12T02:30:25.823Z,59.0951
2023-05-12T02:31:27.605Z,59.1366
2023-05-12T02:32:29.505Z,59.2143
2023-05-12T02:33:30.819Z,59.1965
2023-05-12T02:34:32.475Z,59.1025
2023-05-12T02:35:34.096Z,59.1021
2023-05-12T02:36:35.727Z,59.0688
2023-05-12T02:37:37.505Z,59.1492
2023-05-12T02:38:39.001Z,59.1985
2023-05-12T02:39:40.680Z,59.2405
2023-05-12T02:40:42.324Z,59.2264
2023-05-12T02:41:44.955Z,59.1823
2023-05-12T02:42:45.588Z,59.2433
2023-05-12T02:43:47.206Z,59.1995
2023-05-12T02:44:48.855Z,59.2661
2023-05-12T02:45:50.642Z,59.3231
2023-05-12T02:46:52.120Z,59.4478
2023-05-12T02:47:53.926Z,59.4558
2023-05-12T02:48:55.479Z,59.4023
2023-05-12T02:49:57.104Z,59.3496
2023-05-12T02:50:58.720Z,59.2928
2023-05-12T02:52:00.418Z,59.4941
2023-05-12T02:53:02.085Z,59.9828
2023-05-12T02:54:03.674Z,59.9627
2023-05-12T02:55:05.359Z,59.6409
2023-05-12T02:56:06.992Z,59.0544
2023-05-12T02:57:08.639Z,58.0557
2023-05-12T02:58:10.307Z,57.5312
2023-05-12T02:59:11.945Z,57.2196
2023-05-12T03:00:13.580Z,56.6566
2023-05-12T03:01:15.212Z,56.3960
2023-05-12T03:02:16.892Z,56.4768
2023-05-12T03:03:18.553Z,56.3715
2023-05-12T03:04:20.142Z,55.9205
2023-05-12T03:05:21.803Z,55.8938
2023-05-12T03:06:23.460Z,55.7948
2023-05-12T03:07:25.146Z,55.6069
2023-05-12T03:08:26.818Z,55.7695
2023-05-12T03:09:28.370Z,55.9351
2023-05-12T03:10:30.051Z,55.8024
2023-05-12T03:11:31.652Z,55.5412
2023-05-12T03:12:33.288Z,55.4715
2023-05-12T03:13:35.440Z,55.4544
2023-05-12T03:14:36.657Z,55.3280
2023-05-12T03:15:38.237Z,55.3743
2023-05-12T03:16:40.553Z,55.4176
2023-05-12T03:17:41.581Z,55.5425
2023-05-12T03:18:43.229Z,55.5719
2023-05-12T03:19:44.802Z,55.6470
2023-05-12T03:20:46.518Z,55.5628
2023-05-12T03:21:48.084Z,55.3827
2023-05-12T03:22:49.770Z,55.3495
2023-05-12T03:23:51.452Z,55.3990
2023-05-12T03:24:53.072Z,55.3334
2023-05-12T03:25:54.668Z,55.5153
2023-05-12T03:26:56.320Z,55.4543
2023-05-12T03:27:57.972Z,55.4428
2023-05-12T03:28:59.674Z,55.4784
2023-05-12T03:30:01.252Z,55.3020
2023-05-12T03:31:03.117Z,55.3165
2023-05-12T03:32:04.585Z,55.2663
2023-05-12T03:33:06.253Z,55.2043
2023-05-12T03:34:07.915Z,55.3097
2023-05-12T03:35:09.633Z,55.4783
2023-05-12T03:36:11.139Z,55.6337
2023-05-12T03:37:12.859Z,55.5608
2023-05-12T03:38:14.440Z,55.4311
2023-05-12T03:39:16.191Z,55.3489
2023-05-12T03:40:18.975Z,55.3142
2023-05-12T03:41:19.407Z,55.3091
2023-05-12T03:42:21.048Z,55.3232
2023-05-12T03:43:22.761Z,55.3149
2023-05-12T03:44:24.363Z,55.3421
2023-05-12T03:45:26.062Z,55.4321
2023-05-12T03:46:27.661Z,55.2842
2023-05-12T03:47:29.463Z,55.1224
2023-05-12T03:48:30.971Z,55.1260
2023-05-12T03:49:32.567Z,55.3923
2023-05-12T03:50:34.258Z,55.8172
2023-05-12T03:51:35.978Z,56.0775
2023-05-12T03:52:37.513Z,56.2732
2023-05-12T03:53:39.188Z,55.9606
2023-05-12T03:54:40.809Z,55.7244
2023-05-12T03:55:42.965Z,55.6177
2023-05-12T03:56:44.133Z,55.8336
2023-05-12T03:57:45.744Z,56.1061
2023-05-12T03:58:47.436Z,56.2376
2023-05-12T03:59:49.102Z,56.2171
2023-05-12T04:00:50.732Z,55.9726
2023-05-12T04:01:52.392Z,56.2297
2023-05-12T04:02:54.038Z,56.2478
2023-05-12T04:03:55.729Z,56.3438
2023-05-12T04:04:57.281Z,56.1924
2023-05-12T04:05:58.967Z,55.9852
2023-05-12T04:07:00.650Z,56.0697
2023-05-12T04:08:02.228Z,56.0826
2023-05-12T04:09:03.896Z,56.1871
2023-05-12T04:10:05.540Z,56.0858
2023-05-12T04:11:07.481Z,55.8422
2023-05-12T04:12:08.793Z,55.6311
2023-05-12T04:13:10.460Z,55.4104
2023-05-12T04:14:12.083Z,55.4400
2023-05-12T04:15:13.799Z,55.4652
2023-05-12T04:16:15.524Z,55.3844
2023-05-12T04:17:17.041Z,55.3353
2023-05-12T04:18:18.697Z,55.3869
2023-05-12T04:19:20.329Z,55.4639
2023-05-12T04:20:22.121Z,55.6075
2023-05-12T04:21:24.494Z,55.6454
2023-05-12T04:22:25.817Z,55.5529
2023-05-12T04:23:26.945Z,55.3464
2023-05-12T04:24:28.648Z,55.2679
2023-05-12T04:25:30.234Z,55.2152
2023-05-12T04:26:31.872Z,55.1354
2023-05-12T04:27:33.526Z,55.3427
2023-05-12T04:28:35.176Z,55.3386
2023-05-12T04:29:36.825Z,55.2432
2023-05-12T04:30:38.470Z,55.1326
2023-05-12T04:31:40.177Z,54.9427
2023-05-12T04:32:41.789Z,54.8370
2023-05-12T04:33:43.464Z,54.8624
2023-05-12T04:34:45.951Z,54.9627
2023-05-12T04:35:47.453Z,54.8478
2023-05-12T04:36:48.389Z,54.6516
2023-05-12T04:37:50.973Z,54.5290
2023-05-12T04:38:51.699Z,54.7018
2023-05-12T04:39:53.280Z,54.9252
2023-05-12T04:40:54.914Z,54.8683
2023-05-12T04:41:56.666Z,54.7160
2023-05-12T04:42:58.232Z,54.8131
2023-05-12T04:44:00.380Z,54.7308
2023-05-12T04:45:01.505Z,54.8368
2023-05-12T04:46:03.222Z,54.8247
2023-05-12T04:47:04.875Z,54.7815
2023-05-12T04:48:07.501Z,54.6805
2023-05-12T04:49:09.095Z,54.6053
2023-05-12T04:50:09.950Z,54.8833
2023-05-12T04:51:11.604Z,54.9151
2023-05-12T04:52:13.228Z,54.7522
2023-05-12T04:53:14.828Z,54.2561
2023-05-12T04:54:16.495Z,53.3927
2023-05-12T04:55:18.429Z,52.3893
2023-05-12T04:56:19.883Z,51.7678
2023-05-12T04:57:21.653Z,50.6226
2023-05-12T04:58:23.141Z,49.6274
2023-05-12T04:59:24.731Z,48.4376
2023-05-12T05:00:26.516Z,47.9115
2023-05-12T05:01:28.106Z,46.4290
2023-05-12T05:02:30.270Z,45.8299
2023-05-12T05:03:31.492Z,45.7842
2023-05-12T05:04:33.047Z,45.2329
2023-05-12T05:05:34.658Z,44.8935
2023-05-12T05:06:36.306Z,43.8081
2023-05-12T05:07:38.947Z,43.5518
2023-05-12T05:08:40.443Z,43.4493
2023-05-12T05:09:41.291Z,43.2386
2023-05-12T05:10:42.868Z,42.8666
2023-05-12T05:11:44.586Z,42.4176
2023-05-12T05:12:46.171Z,41.9360
2023-05-12T05:13:47.841Z,41.7729
2023-05-12T05:14:50.425Z,42.2165
2023-05-12T05:15:51.295Z,41.9448
2023-05-12T05:16:52.750Z,41.4452
2023-05-12T05:17:54.647Z,40.8191
2023-05-12T05:18:57.614Z,41.3290
2023-05-12T05:19:59.226Z,41.0387
2023-05-12T05:20:59.522Z,41.3728
2023-05-12T05:22:01.021Z,41.0831
2023-05-12T05:23:02.724Z,41.0755
2023-05-12T05:24:04.346Z,40.1600
2023-05-12T05:25:05.930Z,40.5689
2023-05-12T05:26:07.667Z,40.6336
2023-05-12T05:27:09.230Z,40.9853
2023-05-12T05:28:10.966Z,40.3773
2023-05-12T05:29:12.548Z,40.2676
2023-05-12T05:30:14.256Z,40.0685
2023-05-12T05:31:15.866Z,40.1784
2023-05-12T05:32:17.499Z,40.3924
2023-05-12T05:33:19.250Z,40.3771
2023-05-12T05:34:20.812Z,40.1419
2023-05-12T05:35:22.635Z,39.7126
2023-05-12T05:36:24.046Z,40.4109
2023-05-12T05:37:25.717Z,40.3272
2023-05-12T05:38:28.225Z,40.4711
2023-05-12T05:39:28.958Z,39.9326
2023-05-12T05:40:38.536Z,39.9480
2023-05-12T05:41:32.471Z,39.4556
2023-05-12T05:42:34.058Z,39.4880
2023-05-12T05:43:35.623Z,39.9074
2023-05-12T05:44:37.182Z,39.8947
2023-05-12T05:45:38.888Z,39.8071
2023-05-12T05:46:40.547Z,39.4771
2023-05-12T05:47:42.220Z,39.5410
2023-05-12T05:48:43.859Z,39.5642
2023-05-12T05:49:45.468Z,39.9098
2023-05-12T05:50:47.089Z,39.8489
2023-05-12T05:51:48.751Z,39.8992
2023-05-12T05:52:50.404Z,39.3072
2023-05-12T05:53:52.107Z,39.6442
2023-05-12T05:54:53.714Z,39.6833
2023-05-12T05:55:55.694Z,39.7747
2023-05-12T05:56:57.264Z,39.5990
2023-05-12T05:57:58.710Z,38.9970
2023-05-12T05:59:00.272Z,39.0077
2023-05-12T06:00:01.999Z,39.1672
2023-05-12T06:01:04.091Z,39.7230
2023-05-12T06:02:05.294Z,39.4291
2023-05-12T06:03:06.991Z,39.3388
2023-05-12T06:04:09.544Z,38.9954
2023-05-12T06:05:10.146Z,39.3754
2023-05-12T06:06:12.957Z,39.3583
2023-05-12T06:07:13.452Z,39.7468
2023-05-12T06:08:15.035Z,39.5758
2023-05-12T06:09:16.734Z,39.4318
2023-05-12T06:10:18.622Z,39.4191
2023-05-12T06:11:19.983Z,39.2507
2023-05-12T06:12:21.570Z,39.3125
2023-05-12T06:13:23.245Z,39.7490
2023-05-12T06:14:25.100Z,39.4304
2023-05-12T06:15:26.584Z,39.1084
2023-05-12T06:16:28.240Z,39.1556
2023-05-12T06:17:32.066Z,39.2577
2023-05-12T06:18:31.490Z,39.4820
2023-05-12T06:19:33.722Z,39.8961
2023-05-12T06:20:34.769Z,39.5982
2023-05-12T06:21:36.428Z,38.9920
2023-05-12T06:22:38.056Z,39.0125
2023-05-12T06:23:39.774Z,39.0968
2023-05-12T06:24:41.401Z,39.3870
2023-05-12T06:25:43.029Z,39.4697
2023-05-12T06:26:44.675Z,39.2982
2023-05-12T06:27:46.316Z,38.6527
2023-05-12T06:28:47.984Z,39.2258
2023-05-12T06:29:49.604Z,39.4725
2023-05-12T06:30:51.220Z,40.6396
2023-05-12T06:31:52.902Z,41.4132
2023-05-12T06:32:54.519Z,41.7790
2023-05-12T06:33:56.159Z,41.6761
2023-05-12T06:34:57.846Z,42.3828
2023-05-12T06:35:59.543Z,42.8302
2023-05-12T06:37:01.074Z,44.0906
2023-05-12T06:38:02.805Z,44.4889
2023-05-12T06:39:04.418Z,44.6540
2023-05-12T06:40:06.072Z,44.0904
2023-05-12T06:41:08.669Z,44.2922
2023-05-12T06:42:09.385Z,45.0168
2023-05-12T06:43:10.978Z,46.3536
2023-05-12T06:44:12.643Z,46.6976
2023-05-12T06:45:14.287Z,46.4613
2023-05-12T06:46:16.030Z,45.7403
2023-05-12T06:47:17.544Z,45.8724
2023-05-12T06:48:19.172Z,46.6235
2023-05-12T06:49:20.796Z,48.2567
2023-05-12T06:50:22.572Z,47.9381
2023-05-12T06:51:24.135Z,49.6009
2023-05-12T06:52:26.490Z,47.0096
2023-05-12T06:53:27.371Z,46.6366
2023-05-12T06:54:29.144Z,47.1972
2023-05-12T06:55:30.717Z,48.7866
2023-05-12T06:56:32.453Z,48.4592
2023-05-12T06:57:34.047Z,48.8261
2023-05-12T06:58:35.619Z,47.2524
2023-05-12T06:59:37.304Z,47.0596
2023-05-12T07:00:39.669Z,47.7582
2023-05-12T07:01:40.691Z,49.7230
2023-05-12T07:02:42.280Z,48.9312
2023-05-12T07:03:43.855Z,49.4585
2023-05-12T07:04:45.625Z,47.5072
2023-05-12T07:05:47.189Z,47.2419
2023-05-12T07:06:48.912Z,47.9009
2023-05-12T07:07:50.576Z,49.6613
2023-05-12T07:08:52.157Z,48.7442
2023-05-12T07:09:53.738Z,48.7669
2023-05-12T07:10:55.467Z,47.0337
2023-05-12T07:11:57.126Z,47.0923
2023-05-12T07:12:58.722Z,47.6909
2023-05-12T07:14:00.377Z,49.1280
2023-05-12T07:15:02.017Z,49.3335
2023-05-12T07:16:03.626Z,50.0325
2023-05-12T07:17:05.242Z,47.9908
2023-05-12T07:18:06.991Z,47.7491
2023-05-12T07:19:08.672Z,48.4623
2023-05-12T07:20:10.172Z,49.6451
2023-05-12T07:21:11.867Z,49.8242
2023-05-12T07:22:16.179Z,50.0771
2023-05-12T07:23:15.049Z,48.1948
2023-05-12T07:24:16.708Z,48.0827
2023-05-12T07:25:19.150Z,49.1308
2023-05-12T07:26:21.648Z,50.3444
2023-05-12T07:27:21.624Z,49.8552
2023-05-12T07:28:23.276Z,50.3579
2023-05-12T07:29:24.914Z,48.0185
2023-05-12T07:30:26.660Z,47.9084
2023-05-12T07:31:29.197Z,48.6863
2023-05-12T07:32:29.920Z,50.3623
2023-05-12T07:33:32.683Z,49.0768
2023-05-12T07:34:33.208Z,48.8987
2023-05-12T07:35:34.949Z,47.1681
2023-05-12T07:36:36.574Z,47.1498
2023-05-12T07:37:38.356Z,47.8139
2023-05-12T07:38:39.905Z,49.6600
2023-05-12T07:39:41.554Z,49.0780
2023-05-12T07:40:43.140Z,48.7677
2023-05-12T07:41:44.876Z,47.0554
2023-05-12T07:42:46.429Z,46.9809
2023-05-12T07:43:48.276Z,47.9006
2023-05-12T07:44:49.706Z,49.8753
2023-05-12T07:45:51.441Z,49.4630
2023-05-12T07:46:54.100Z,50.0305
2023-05-12T07:47:55.557Z,47.2161
2023-05-12T07:48:56.266Z,47.1465
2023-05-12T07:49:58.693Z,48.0322
2023-05-12T07:50:59.543Z,49.4519
2023-05-12T07:52:01.270Z,48.8237
2023-05-12T07:53:02.856Z,50.8433
2023-05-12T07:54:04.540Z,47.8269
2023-05-12T07:55:06.158Z,47.6613
2023-05-12T07:56:07.861Z,48.7840
2023-05-12T07:57:09.478Z,49.9214
2023-05-12T07:58:11.059Z,49.8418
2023-05-12T07:59:12.754Z,50.5526
2023-05-12T08:00:14.413Z,47.8187
2023-05-12T08:01:16.109Z,47.5384
2023-05-12T08:02:18.202Z,48.4861
2023-05-12T08:03:19.403Z,49.2609
2023-05-12T08:04:21.027Z,48.9728
2023-05-12T08:05:22.701Z,50.4233
2023-05-12T08:06:25.026Z,47.5116
2023-05-12T08:07:26.195Z,47.4683
2023-05-12T08:08:27.516Z,48.6477
2023-05-12T08:09:29.221Z,49.2628
2023-05-12T08:10:30.843Z,49.2563
2023-05-12T08:11:32.475Z,50.3913
2023-05-12T08:12:34.131Z,47.3503
2023-05-12T08:13:35.733Z,47.3095
2023-05-12T08:14:37.335Z,48.7955
2023-05-12T08:15:39.045Z,49.3818
2023-05-12T08:16:40.739Z,49.1098
2023-05-12T08:17:42.359Z,50.4860
2023-05-12T08:18:43.986Z,47.7714
2023-05-12T08:19:45.571Z,47.3801
2023-05-12T08:20:47.249Z,47.8048
2023-05-12T08:21:48.878Z,49.4208
2023-05-12T08:22:52.173Z,49.0934
2023-05-12T08:23:53.209Z,49.6368
2023-05-12T08:24:54.044Z,48.2708
2023-05-12T08:25:55.600Z,47.3042
2023-05-12T08:26:57.359Z,47.8678
2023-05-12T08:27:58.976Z,49.7985
2023-05-12T08:29:00.599Z,49.3421
2023-05-12T08:30:02.223Z,48.6777
2023-05-12T08:31:05.127Z,47.8259
2023-05-12T08:32:05.421Z,46.7413
2023-05-12T08:33:07.213Z,47.0509
2023-05-12T08:34:10.906Z,48.5328
2023-05-12T08:35:10.391Z,48.8927
2023-05-12T08:36:11.987Z,48.4445
2023-05-12T08:37:13.783Z,47.5666
2023-05-12T08:38:15.662Z,46.2308
2023-05-12T08:39:16.957Z,46.2862
2023-05-12T08:40:18.571Z,47.1951
2023-05-12T08:41:20.257Z,48.1134
2023-05-12T08:42:21.960Z,48.0235
2023-05-12T08:43:23.624Z,47.5801
2023-05-12T08:44:25.172Z,46.3630
2023-05-12T08:45:26.913Z,46.1963
2023-05-12T08:46:28.509Z,46.7474
2023-05-12T08:47:30.145Z,48.5255
2023-05-12T08:48:31.788Z,48.8153
2023-05-12T08:49:33.495Z,47.8080
2023-05-12T08:50:35.128Z,46.6359
2023-05-12T08:51:36.721Z,45.7926
2023-05-12T08:52:38.363Z,45.9426
2023-05-12T08:53:40.057Z,47.2745
2023-05-12T08:54:52.414Z,48.2010
2023-05-12T08:55:48.224Z,47.1714
2023-05-12T08:57:46.627Z,45.6200
2023-05-12T08:58:48.222Z,45.6392
2023-05-12T08:59:49.969Z,47.2310
2023-05-12T09:00:51.604Z,48.6991
2023-05-12T09:01:53.363Z,47.4030
2023-05-12T09:02:55.118Z,48.0110
2023-05-12T09:03:56.598Z,45.6098
2023-05-12T09:04:58.192Z,45.8896
2023-05-12T09:05:59.836Z,47.0657
2023-05-12T09:07:01.459Z,48.4383
2023-05-12T09:08:03.112Z,47.3792
2023-05-12T09:09:04.763Z,47.6155
2023-05-12T09:10:06.419Z,45.7971
2023-05-12T09:11:08.086Z,45.9029
2023-05-12T09:12:10.556Z,46.7587
2023-05-12T09:13:11.343Z,48.4780
2023-05-12T09:14:13.049Z,47.8362
2023-05-12T09:15:14.729Z,47.9161
2023-05-12T09:16:16.334Z,46.1435
2023-05-12T09:17:17.992Z,45.8916
2023-05-12T09:18:19.623Z,46.2512
2023-05-12T09:19:21.186Z,47.4257
2023-05-12T09:20:30.818Z,47.2011
2023-05-12T09:21:24.438Z,47.2745
2023-05-12T09:22:26.084Z,45.6443
2023-05-12T09:23:27.742Z,45.1495
2023-05-12T09:24:29.387Z,45.6258
2023-05-12T09:25:31.078Z,46.9165
2023-05-12T09:26:32.704Z,46.6952
2023-05-12T09:27:34.389Z,47.0103
2023-05-12T09:28:36.020Z,44.8182
2023-05-12T09:29:45.310Z,44.3990
2023-05-12T09:30:39.317Z,45.0971
2023-05-12T09:31:40.959Z,46.6238
2023-05-12T09:32:42.548Z,46.4372
2023-05-12T09:33:44.217Z,46.1639
2023-05-12T09:34:46.595Z,43.9981
2023-05-12T09:35:47.543Z,43.7027
2023-05-12T09:36:49.156Z,44.1581
2023-05-12T09:37:51.846Z,45.3931
2023-05-12T09:38:52.595Z,46.0651
2023-05-12T09:39:54.192Z,44.8977
2023-05-12T09:40:55.873Z,43.4426
2023-05-12T09:41:57.552Z,43.5667
2023-05-12T09:42:59.144Z,44.8212
2023-05-12T09:44:00.894Z,46.2915
2023-05-12T09:45:02.478Z,46.7029
2023-05-12T09:46:04.139Z,45.2388
2023-05-12T09:47:05.800Z,43.6391
2023-05-12T09:48:07.442Z,43.7796
2023-05-12T09:49:09.111Z,44.4221
2023-05-12T09:50:10.741Z,45.7870
2023-05-12T09:51:12.376Z,46.0305
2023-05-12T09:52:14.036Z,44.7024
2023-05-12T09:53:15.709Z,44.1754
2023-05-12T09:54:18.281Z,44.1920
2023-05-12T09:55:19.068Z,45.7680
2023-05-12T09:56:20.645Z,45.3546
2023-05-12T09:57:22.248Z,46.3970
2023-05-12T09:58:23.891Z,43.4542
2023-05-12T09:59:25.576Z,43.4176
2023-05-12T10:00:41.293Z,43.8052
2023-05-12T10:01:28.873Z,45.6021
2023-05-12T10:02:30.725Z,46.9432
2023-05-12T10:03:32.099Z,45.5354
2023-05-12T10:04:33.802Z,43.1516
2023-05-12T10:05:35.400Z,43.1619
2023-05-12T10:06:37.748Z,43.7702
2023-05-12T10:07:38.802Z,45.3168
2023-05-12T10:08:40.509Z,45.7380
2023-05-12T10:09:41.999Z,44.2689
2023-05-12T10:10:43.612Z,42.8712
2023-05-12T10:11:45.348Z,42.9176
2023-05-12T10:12:46.957Z,43.9107
2023-05-12T10:13:48.597Z,46.4684
2023-05-12T10:14:50.207Z,46.3352
2023-05-12T10:15:51.954Z,44.7857
2023-05-12T10:16:54.268Z,43.5137
2023-05-12T10:17:55.264Z,43.4803
2023-05-12T10:18:56.898Z,44.2629
2023-05-12T10:19:58.449Z,46.0145
2023-05-12T10:21:00.240Z,46.1995
2023-05-12T10:22:02.346Z,43.1564
2023-05-12T10:23:03.419Z,42.6869
2023-05-12T10:24:05.053Z,42.7793
2023-05-12T10:25:06.673Z,43.6503
2023-05-12T10:26:08.337Z,45.5352
2023-05-12T10:27:10.752Z,45.7347
2023-05-12T10:28:11.784Z,43.0877
2023-05-12T10:29:13.296Z,42.4781
2023-05-12T10:30:14.944Z,42.7551
2023-05-12T10:31:16.712Z,43.8081
2023-05-12T10:32:19.292Z,45.0289
2023-05-12T10:33:20.358Z,43.5005
2023-05-12T10:34:21.662Z,41.5085
2023-05-12T10:35:23.171Z,41.0227
2023-05-12T10:36:24.844Z,41.7468
2023-05-12T10:37:27.216Z,43.4809
2023-05-12T10:38:28.158Z,44.3061
2023-05-12T10:39:29.718Z,42.4528
2023-05-12T10:40:32.381Z,41.2375
2023-05-12T10:41:33.049Z,41.4483
2023-05-12T10:42:35.275Z,42.3122
2023-05-12T10:43:36.372Z,44.3985
2023-05-12T10:44:38.022Z,44.3820
2023-05-12T10:45:39.663Z,42.0518
2023-05-12T10:46:41.317Z,42.1231
2023-05-12T10:47:43.059Z,42.6505
2023-05-12T10:48:44.597Z,44.0459
2023-05-12T10:49:46.264Z,45.2981
2023-05-12T10:50:47.858Z,46.3456
2023-05-12T10:51:49.524Z,42.6943
2023-05-12T10:52:51.172Z,42.3981
2023-05-12T10:53:54.860Z,43.0398
2023-05-12T10:54:54.509Z,44.4471
2023-05-12T10:55:56.288Z,45.4310
2023-05-12T10:56:57.964Z,45.9117
2023-05-12T10:58:00.154Z,42.9648
2023-05-12T10:59:01.468Z,42.6834
2023-05-12T11:00:03.835Z,42.9812
2023-05-12T11:01:05.055Z,43.9312
2023-05-12T11:02:06.975Z,45.9388
2023-05-12T11:03:10.441Z,43.9626
2023-05-12T11:04:09.410Z,42.3130
2023-05-12T11:05:11.223Z,42.2996
2023-05-12T11:06:12.806Z,42.7164
2023-05-12T11:07:14.707Z,43.6869
2023-05-12T11:08:16.061Z,45.7724
2023-05-12T11:09:18.002Z,43.7649
2023-05-12T11:10:19.706Z,42.0819
2023-05-12T11:11:20.870Z,41.8948
2023-05-12T11:12:22.583Z,42.2104
2023-05-12T11:13:24.192Z,42.9045
2023-05-12T11:14:25.819Z,44.2547
2023-05-12T11:15:27.491Z,41.9803
2023-05-12T11:16:29.155Z,41.3507
2023-05-12T11:17:30.784Z,41.1282
2023-05-12T11:18:32.442Z,41.7640
2023-05-12T11:19:34.074Z,43.2868
2023-05-12T11:20:35.628Z,43.7879
2023-05-12T11:21:37.371Z,41.2246
2023-05-12T11:22:38.979Z,40.9787
2023-05-12T11:23:40.704Z,40.8916
2023-05-12T11:24:42.298Z,41.8553
2023-05-12T11:25:44.451Z,43.4738
2023-05-12T11:26:45.620Z,42.6169
2023-05-12T11:27:47.598Z,41.0324
2023-05-12T11:28:48.913Z,40.9542
2023-05-12T11:29:52.368Z,41.1641
2023-05-12T11:30:54.699Z,42.4859
2023-05-12T11:31:53.876Z,44.1157
2023-05-12T11:32:55.429Z,42.5546
2023-05-12T11:34:10.846Z,41.0515
2023-05-12T11:34:58.801Z,41.0733
2023-05-12T11:36:00.464Z,41.5722
2023-05-12T11:37:02.067Z,42.6536
2023-05-12T11:38:03.742Z,42.5018
2023-05-12T11:39:05.387Z,41.3728
2023-05-12T11:40:07.090Z,41.1951
2023-05-12T11:41:08.620Z,41.3390
2023-05-12T11:42:13.433Z,42.3404
2023-05-12T11:43:12.047Z,43.3521
2023-05-12T11:44:13.663Z,44.5977
2023-05-12T11:45:15.254Z,42.0098
2023-05-12T11:46:17.011Z,41.5756
2023-05-12T11:47:18.588Z,41.8154
2023-05-12T11:48:20.339Z,42.6805
2023-05-12T11:49:22.293Z,43.6818
2023-05-12T11:50:23.568Z,45.3834
2023-05-12T11:51:25.120Z,42.0063
2023-05-12T11:52:26.806Z,42.5369
2023-05-12T11:53:28.499Z,42.5961
2023-05-12T11:54:30.148Z,43.3677
2023-05-12T11:55:31.720Z,45.0911
2023-05-12T11:56:33.429Z,45.4934
2023-05-12T11:57:35.756Z,42.9427
2023-05-12T11:58:36.683Z,43.4250
2023-05-12T11:59:38.797Z,43.4554
2023-05-12T12:00:40.052Z,44.5600
2023-05-12T12:01:41.609Z,47.0325
2023-05-12T12:02:43.471Z,44.3146
2023-05-12T12:03:45.037Z,42.8698
2023-05-12T12:04:46.641Z,43.2163
2023-05-12T12:05:48.194Z,43.6668
2023-05-12T12:06:49.893Z,45.0324
2023-05-12T12:07:51.491Z,46.9610
2023-05-12T12:08:53.130Z,43.4384
2023-05-12T12:09:54.821Z,42.7489
2023-05-12T12:10:57.273Z,42.9612
2023-05-12T12:11:58.104Z,43.4357
2023-05-12T12:13:00.289Z,45.1705
2023-05-12T12:14:01.416Z,45.0729
2023-05-12T12:15:04.018Z,42.3336
2023-05-12T12:16:05.635Z,42.6515
2023-05-12T12:17:06.338Z,42.6401
2023-05-12T12:18:08.099Z,43.6511
2023-05-12T12:19:09.813Z,45.9218
2023-05-12T12:20:11.384Z,44.8620
2023-05-12T12:21:12.953Z,41.7655
2023-05-12T12:22:14.581Z,42.3339
2023-05-12T12:23:16.169Z,42.6103
2023-05-12T12:24:18.772Z,43.3094
2023-05-12T12:25:19.822Z,45.4112
2023-05-12T12:26:21.176Z,42.5707